createdAt,value
2023-02-19T00:01:54.247Z,86.13
2023-02-19T00:04:23.638Z,86.05
2023-02-19T00:06:52.116Z,85.28
2023-02-19T00:09:21.642Z,85.14
2023-02-19T00:11:50.962Z,84.46
2023-02-19T00:14:22.199Z,86.08
2023-02-19T00:16:50.915Z,85.06
2023-02-19T00:19:21.570Z,85.21
2023-02-19T00:21:52.627Z,85.88
2023-02-19T00:24:21.938Z,86.68
2023-02-19T00:26:51.108Z,86.86
2023-02-19T00:29:21.758Z,86.47
2023-02-19T00:31:49.890Z,86.95
2023-02-19T00:34:17.806Z,86.96
2023-02-19T00:36:45.746Z,86.67
2023-02-19T00:39:18.325Z,86.13
2023-02-19T00:41:47.339Z,86.72
2023-02-19T00:44:17.072Z,86.90
2023-02-19T00:46:47.958Z,85.62
2023-02-19T00:49:59.293Z,86.37
2023-02-19T00:52:35.083Z,87.12
2023-02-19T00:55:02.847Z,86.21
2023-02-19T00:57:30.607Z,86.31
2023-02-19T00:59:59.732Z,85.07
2023-02-19T01:02:27.639Z,84.95
2023-02-19T01:04:55.471Z,84.19
2023-02-19T01:07:23.299Z,85.09
2023-02-19T01:09:51.102Z,85.54
2023-02-19T01:12:18.960Z,85.33
2023-02-19T01:14:46.824Z,85.49
2023-02-19T01:17:16.011Z,85.34
2023-02-19T01:19:43.768Z,85.60
2023-02-19T01:22:11.565Z,86.25
2023-02-19T01:24:39.428Z,84.55
2023-02-19T01:27:07.252Z,82.88
2023-02-19T01:29:35.061Z,82.24
2023-02-19T01:32:03.012Z,82.79
2023-02-19T01:34:34.052Z,83.59
2023-02-19T01:37:02.143Z,84.15
2023-02-19T01:39:30.027Z,83.15
2023-02-19T01:41:58.593Z,83.45
2023-02-19T01:45:22.026Z,82.73
2023-02-19T01:48:03.288Z,83.14
2023-02-19T01:50:39.704Z,84.71
2023-02-19T01:53:11.352Z,84.16
2023-02-19T01:55:41.570Z,83.68
2023-02-19T01:58:10.333Z,83.92
2023-02-19T02:00:38.609Z,84.86
2023-02-19T02:03:07.027Z,84.48
2023-02-19T02:05:48.744Z,84.16
2023-02-19T02:08:36.691Z,84.13
2023-02-19T02:11:05.442Z,84.26
2023-02-19T02:13:35.888Z,84.05
2023-02-19T02:16:24.884Z,83.91
2023-02-19T02:19:06.473Z,83.77
2023-02-19T02:22:08.623Z,83.94
2023-02-19T02:25:14.074Z,84.70
2023-02-19T02:27:57.701Z,84.95
2023-02-19T02:30:40.666Z,84.42
2023-02-19T02:33:22.081Z,84.84
2023-02-19T02:35:55.164Z,84.10
2023-02-19T02:38:29.866Z,84.20
2023-02-19T02:40:59.240Z,83.75
2023-02-19T02:43:27.270Z,84.16
2023-02-19T02:45:56.525Z,83.24
2023-02-19T02:48:38.351Z,83.21
2023-02-19T02:51:16.960Z,84.51
2023-02-19T02:54:09.098Z,84.55
2023-02-19T02:56:38.615Z,84.20
2023-02-19T02:59:10.669Z,83.26
2023-02-19T03:02:03.679Z,84.26
2023-02-19T03:04:58.625Z,83.72
2023-02-19T03:07:34.779Z,83.36
2023-02-19T03:10:06.205Z,83.19
2023-02-19T03:12:55.822Z,82.87
2023-02-19T03:15:50.614Z,82.36
2023-02-19T03:18:40.941Z,82.33
2023-02-19T03:21:11.209Z,82.81
2023-02-19T03:23:56.339Z,83.17
2023-02-19T03:26:27.190Z,83.73
2023-02-19T03:29:14.768Z,84.50
2023-02-19T03:31:45.900Z,83.85
2023-02-19T03:34:22.718Z,83.56
2023-02-19T03:37:01.951Z,83.44
2023-02-19T03:39:30.564Z,82.94
2023-02-19T03:42:07.891Z,83.12
2023-02-19T03:44:45.949Z,83.59
2023-02-19T03:47:21.590Z,83.32
2023-02-19T03:50:01.351Z,82.68
2023-02-19T03:52:42.685Z,83.46
2023-02-19T03:55:18.299Z,83.03
2023-02-19T03:57:56.181Z,82.84
2023-02-19T04:00:33.567Z,82.79
2023-02-19T04:03:10.808Z,82.32
2023-02-19T04:05:48.629Z,83.00
2023-02-19T04:08:21.410Z,82.96
2023-02-19T04:10:54.199Z,82.71
2023-02-19T04:13:28.759Z,82.40
2023-02-19T04:16:04.636Z,81.94
2023-02-19T04:18:37.280Z,82.17
2023-02-19T04:21:08.697Z,82.50
2023-02-19T04:23:43.523Z,82.90
2023-02-19T04:26:14.159Z,82.55
2023-02-19T04:28:43.728Z,82.85
2023-02-19T04:31:12.712Z,82.85
2023-02-19T04:33:40.718Z,83.58
2023-02-19T04:36:12.553Z,84.25
2023-02-19T04:38:40.443Z,84.15
2023-02-19T04:41:08.670Z,83.07
2023-02-19T04:43:36.651Z,82.89
2023-02-19T04:46:04.749Z,82.84
2023-02-19T04:48:32.595Z,82.50
2023-02-19T04:51:00.495Z,82.85
2023-02-19T04:53:29.620Z,83.00
2023-02-19T04:55:57.380Z,82.36
2023-02-19T04:58:25.231Z,82.14
2023-02-19T05:00:53.889Z,82.78
2023-02-19T05:03:21.710Z,83.12
2023-02-19T05:05:49.528Z,82.17
2023-02-19T05:08:17.318Z,82.22
2023-02-19T05:10:46.815Z,82.20
2023-02-19T05:13:14.632Z,82.41
2023-02-19T05:15:42.416Z,82.24
2023-02-19T05:18:10.232Z,81.53
2023-02-19T05:20:38.477Z,81.31
2023-02-19T05:23:06.255Z,81.54
2023-02-19T05:25:34.040Z,81.39
2023-02-19T05:30:59.049Z,81.30
2023-02-19T05:33:27.332Z,81.54
2023-02-19T05:35:56.911Z,81.72
2023-02-19T05:38:25.774Z,81.03
2023-02-19T05:40:53.525Z,80.66
2023-02-19T05:43:21.311Z,80.47
2023-02-19T05:45:49.138Z,81.77
2023-02-19T05:48:18.242Z,80.77
2023-02-19T05:50:46.021Z,79.87
2023-02-19T05:53:13.862Z,80.44
2023-02-19T05:55:41.628Z,80.57
2023-02-19T05:58:09.386Z,80.72
2023-02-19T06:00:37.177Z,81.16
2023-02-19T06:03:05.121Z,81.44
2023-02-19T06:05:34.202Z,80.73
2023-02-19T06:08:01.948Z,81.54
2023-02-19T06:10:29.723Z,82.06
2023-02-19T06:12:57.611Z,82.71
2023-02-19T06:15:25.355Z,82.66
2023-02-19T06:17:53.035Z,82.99
2023-02-19T06:20:20.935Z,82.91
2023-02-19T06:22:52.464Z,83.02
2023-02-19T06:25:20.750Z,82.91
2023-02-19T06:27:48.563Z,83.20
2023-02-19T06:30:16.420Z,83.97
2023-02-19T06:32:44.153Z,84.10
2023-02-19T06:35:11.952Z,83.89
2023-02-19T06:37:39.743Z,83.68
2023-02-19T06:40:10.193Z,84.38
2023-02-19T06:42:37.984Z,83.78
2023-02-19T06:45:06.437Z,84.21
2023-02-19T06:47:35.198Z,82.83
2023-02-19T06:50:02.982Z,82.95
2023-02-19T06:52:30.825Z,83.47
2023-02-19T06:54:58.592Z,83.29
2023-02-19T06:57:27.804Z,83.72
2023-02-19T06:59:55.537Z,83.20
2023-02-19T07:02:23.299Z,83.07
2023-02-19T07:04:51.068Z,83.22
2023-02-19T07:07:18.917Z,83.35
2023-02-19T07:09:46.724Z,83.21
2023-02-19T07:12:14.502Z,82.93
2023-02-19T07:14:43.764Z,82.91
2023-02-19T07:17:11.574Z,83.08
2023-02-19T07:19:39.344Z,83.03
2023-02-19T07:22:07.160Z,82.54
2023-02-19T07:24:34.971Z,82.14
2023-02-19T07:27:02.777Z,82.40
2023-02-19T07:29:30.475Z,82.76
2023-02-19T07:31:59.660Z,81.71
2023-02-19T07:34:27.992Z,81.87
2023-02-19T07:36:55.743Z,82.95
2023-02-19T07:39:23.528Z,83.13
2023-02-19T07:41:51.257Z,81.64
2023-02-19T07:44:19.137Z,82.94
2023-02-19T07:46:46.923Z,83.23
2023-02-19T07:49:16.138Z,83.28
2023-02-19T07:51:44.539Z,84.36
2023-02-19T07:54:12.507Z,83.71
2023-02-19T07:56:40.340Z,84.45
2023-02-19T07:59:08.075Z,84.28
2023-02-19T08:01:54.260Z,84.93
2023-02-19T08:04:23.442Z,84.32
2023-02-19T08:06:51.252Z,84.53
2023-02-19T08:09:19.047Z,84.45
2023-02-19T08:12:04.253Z,84.45
2023-02-19T08:14:32.417Z,84.82
2023-02-19T08:17:00.274Z,84.62
2023-02-19T08:19:29.470Z,84.60
2023-02-19T08:21:57.290Z,85.03
2023-02-19T08:24:25.068Z,84.93
2023-02-19T08:26:52.909Z,83.71
2023-02-19T08:29:20.752Z,82.86
2023-02-19T08:31:48.808Z,83.69
2023-02-19T08:34:16.650Z,84.51
2023-02-19T08:36:45.809Z,83.30
2023-02-19T08:39:13.610Z,82.92
2023-02-19T08:41:41.380Z,83.53
2023-02-19T08:44:09.168Z,83.66
2023-02-19T08:46:37.014Z,84.41
2023-02-19T08:49:05.183Z,84.78
2023-02-19T08:51:32.998Z,83.68
2023-02-19T08:54:04.458Z,83.49
2023-02-19T08:56:32.295Z,84.17
2023-02-19T08:59:00.097Z,83.52
2023-02-19T09:01:27.952Z,83.75
2023-02-19T09:03:55.766Z,82.93
2023-02-19T09:06:23.693Z,82.62
2023-02-19T09:08:51.472Z,83.25
2023-02-19T09:11:20.633Z,82.18
2023-02-19T09:13:48.443Z,82.87
2023-02-19T09:16:16.173Z,81.57
2023-02-19T09:18:45.763Z,81.21
2023-02-19T09:21:13.861Z,81.06
2023-02-19T09:23:41.714Z,81.29
2023-02-19T09:26:11.390Z,80.43
2023-02-19T09:28:43.156Z,81.08
2023-02-19T09:31:14.378Z,80.25
2023-02-19T09:33:47.480Z,79.84
2023-02-19T09:36:17.067Z,79.64
2023-02-19T09:38:45.105Z,79.72
2023-02-19T09:41:23.438Z,79.69
2023-02-19T09:43:53.012Z,79.86
2023-02-19T09:46:31.442Z,78.09
2023-02-19T09:49:12.616Z,79.18
2023-02-19T09:51:44.839Z,78.35
2023-02-19T09:54:21.808Z,77.87
2023-02-19T09:56:49.639Z,77.82
2023-02-19T09:59:25.465Z,77.51
2023-02-19T10:02:03.401Z,77.37
2023-02-19T10:04:31.273Z,77.21
2023-02-19T10:07:03.626Z,77.78
2023-02-19T10:09:32.517Z,78.14
2023-02-19T10:12:01.381Z,77.44
2023-02-19T10:14:40.827Z,76.92
2023-02-19T10:17:19.067Z,78.07
2023-02-19T10:19:46.825Z,76.96
2023-02-19T10:22:14.806Z,77.84
2023-02-19T10:24:45.634Z,77.70
2023-02-19T10:27:15.547Z,77.64
2023-02-19T10:29:48.737Z,77.08
2023-02-19T10:32:21.197Z,78.29
2023-02-19T10:34:49.093Z,76.98
2023-02-19T10:37:19.844Z,77.38
2023-02-19T10:39:50.531Z,76.35
2023-02-19T10:42:21.747Z,72.99
2023-02-19T10:44:58.586Z,72.30
2023-02-19T10:47:29.926Z,69.40
2023-02-19T10:50:04.101Z,70.09
2023-02-19T10:52:36.545Z,69.39
2023-02-19T10:55:25.624Z,70.09
2023-02-19T10:57:53.546Z,70.47
2023-02-19T11:00:27.594Z,68.36
2023-02-19T11:03:19.386Z,68.84
2023-02-19T11:06:02.181Z,68.55
2023-02-19T11:08:31.646Z,69.32
2023-02-19T11:10:59.565Z,68.75
2023-02-19T11:13:32.542Z,67.67
2023-02-19T11:16:02.330Z,64.54
2023-02-19T11:18:32.885Z,65.02
2023-02-19T11:21:04.709Z,62.56
2023-02-19T11:23:37.021Z,64.59
2023-02-19T11:26:08.214Z,62.99
2023-02-19T11:28:39.668Z,63.93
2023-02-19T11:31:26.457Z,63.38
2023-02-19T11:33:59.728Z,59.58
2023-02-19T11:36:33.203Z,57.15
2023-02-19T11:39:21.366Z,58.56
2023-02-19T11:42:11.798Z,59.40
2023-02-19T11:44:55.352Z,57.38
2023-02-19T11:47:55.345Z,57.67
2023-02-19T11:50:37.689Z,57.76
2023-02-19T11:53:22.167Z,58.46
2023-02-19T11:56:08.737Z,57.23
2023-02-19T11:58:57.647Z,56.91
2023-02-19T12:01:49.658Z,52.14
2023-02-19T12:05:10.501Z,55.41
2023-02-19T12:08:38.347Z,56.88
2023-02-19T12:11:38.837Z,56.12
2023-02-19T12:14:49.130Z,56.64
2023-02-19T12:17:44.226Z,59.24
2023-02-19T12:20:31.954Z,57.40
2023-02-19T12:23:35.924Z,54.75
2023-02-19T12:26:17.381Z,57.83
2023-02-19T12:29:17.913Z,56.16
2023-02-19T12:32:09.865Z,57.15
2023-02-19T12:35:23.512Z,56.93
2023-02-19T12:38:05.588Z,57.87
2023-02-19T12:40:51.024Z,58.15
2023-02-19T12:43:21.974Z,58.58
2023-02-19T12:45:57.838Z,58.33
2023-02-19T12:48:33.650Z,59.19
2023-02-19T12:51:10.935Z,56.85
2023-02-19T12:53:53.705Z,59.04
2023-02-19T12:56:30.333Z,60.63
2023-02-19T12:59:04.983Z,59.96
2023-02-19T13:01:41.588Z,57.78
2023-02-19T13:04:23.786Z,59.42
2023-02-19T13:06:58.609Z,58.47
2023-02-19T13:09:36.707Z,59.48
2023-02-19T13:12:12.694Z,58.20
2023-02-19T13:14:46.992Z,58.60
2023-02-19T13:17:27.737Z,59.13
2023-02-19T13:20:03.873Z,57.24
2023-02-19T13:23:00.975Z,58.81
2023-02-19T13:25:57.334Z,58.41
2023-02-19T13:28:50.765Z,59.63
2023-02-19T13:31:44.841Z,57.95
2023-02-19T13:34:34.918Z,57.65
2023-02-19T13:37:04.020Z,59.09
2023-02-19T13:39:32.669Z,58.48
2023-02-19T13:42:03.098Z,58.25
2023-02-19T13:44:33.494Z,59.00
2023-02-19T13:47:06.051Z,58.37
2023-02-19T13:49:45.412Z,59.36
2023-02-19T13:52:42.414Z,59.42
2023-02-19T13:56:26.061Z,59.34
2023-02-19T13:58:58.275Z,59.77
2023-02-19T14:02:35.008Z,58.56
2023-02-19T14:05:07.882Z,59.88
2023-02-19T14:07:55.177Z,58.76
2023-02-19T14:10:57.627Z,60.15
2023-02-19T14:14:06.411Z,59.62
2023-02-19T14:16:53.648Z,60.06
2023-02-19T14:20:03.986Z,57.88
2023-02-19T14:23:09.759Z,59.63
2023-02-19T14:25:45.381Z,59.31
2023-02-19T14:28:38.927Z,60.02
2023-02-19T14:31:30.475Z,59.27
2023-02-19T14:34:03.316Z,60.10
2023-02-19T14:36:40.577Z,59.45
2023-02-19T14:39:17.944Z,57.58
2023-02-19T14:41:51.923Z,58.58
2023-02-19T14:45:22.377Z,57.06
2023-02-19T14:47:54.507Z,56.70
2023-02-19T14:50:30.227Z,58.29
2023-02-19T14:53:04.256Z,58.20
2023-02-19T14:55:36.296Z,57.77
2023-02-19T14:58:12.955Z,57.25
2023-02-19T15:00:42.355Z,57.03
2023-02-19T15:03:31.822Z,60.85
2023-02-19T15:06:06.079Z,57.65
2023-02-19T15:08:40.720Z,57.30
2023-02-19T15:11:16.345Z,56.61
2023-02-19T15:13:45.743Z,58.23
2023-02-19T15:16:19.870Z,57.47
2023-02-19T15:18:51.753Z,56.91
2023-02-19T15:21:26.292Z,58.56
2023-02-19T15:23:57.719Z,59.12
2023-02-19T15:26:35.161Z,58.67
2023-02-19T15:29:11.203Z,59.16
2023-02-19T15:31:46.643Z,57.25
2023-02-19T15:34:21.721Z,57.48
2023-02-19T15:36:53.539Z,59.36
2023-02-19T15:39:25.794Z,58.57
2023-02-19T15:42:02.104Z,59.38
2023-02-19T15:44:43.018Z,59.39
2023-02-19T15:47:25.413Z,59.37
2023-02-19T15:50:04.641Z,59.03
2023-02-19T15:52:45.016Z,59.56
2023-02-19T15:55:31.959Z,58.96
2023-02-19T15:58:14.844Z,60.00
2023-02-19T16:00:51.579Z,61.65
2023-02-19T16:03:21.107Z,61.17
2023-02-19T16:06:02.802Z,64.06
2023-02-19T16:08:33.426Z,62.48
2023-02-19T16:11:04.036Z,63.66
2023-02-19T16:13:34.921Z,62.03
2023-02-19T16:16:17.035Z,61.73
2023-02-19T16:18:51.404Z,62.62
2023-02-19T16:21:24.626Z,62.09
2023-02-19T16:24:02.506Z,63.29
2023-02-19T16:26:31.898Z,63.51
2023-02-19T16:28:59.696Z,64.66
2023-02-19T16:31:29.364Z,66.61
2023-02-19T16:33:58.868Z,66.01
2023-02-19T16:36:37.941Z,66.91
2023-02-19T16:39:23.460Z,66.96
2023-02-19T16:42:19.411Z,68.07
2023-02-19T16:44:48.894Z,68.42
2023-02-19T16:47:44.974Z,66.17
2023-02-19T16:50:16.692Z,68.95
2023-02-19T16:52:57.311Z,69.72
2023-02-19T16:55:26.373Z,68.33
2023-02-19T16:57:54.377Z,68.42
2023-02-19T17:00:25.831Z,68.26
2023-02-19T17:02:58.234Z,67.29
2023-02-19T17:05:30.120Z,68.03
2023-02-19T17:07:59.496Z,69.62
2023-02-19T17:10:29.288Z,67.58
2023-02-19T17:12:57.518Z,67.55
2023-02-19T17:15:25.312Z,66.78
2023-02-19T17:17:53.081Z,68.02
2023-02-19T17:20:28.503Z,68.06
2023-02-19T17:22:56.664Z,67.95
2023-02-19T17:25:25.889Z,67.96
2023-02-19T17:27:53.688Z,68.49
2023-02-19T17:30:28.866Z,68.95
2023-02-19T17:32:56.844Z,68.95
2023-02-19T17:35:25.186Z,69.74
2023-02-19T17:37:53.582Z,69.10
2023-02-19T17:40:33.038Z,68.75
2023-02-19T17:43:01.398Z,69.28
2023-02-19T17:45:29.341Z,69.19
2023-02-19T17:47:57.129Z,69.20
2023-02-19T17:50:27.729Z,69.02
2023-02-19T17:52:55.572Z,69.15
2023-02-19T17:55:24.915Z,69.94
2023-02-19T17:57:54.004Z,69.71
2023-02-19T18:00:25.821Z,69.72
2023-02-19T18:02:53.636Z,69.64
2023-02-19T18:05:21.939Z,68.68
2023-02-19T18:07:50.808Z,68.25
2023-02-19T18:10:21.407Z,67.84
2023-02-19T18:12:51.459Z,65.30
2023-02-19T18:15:23.178Z,66.09
2023-02-19T18:17:51.587Z,64.53
2023-02-19T18:20:23.746Z,64.55
2023-02-19T18:22:52.319Z,66.22
2023-02-19T18:25:21.591Z,65.50
2023-02-19T18:27:51.499Z,64.43
2023-02-19T18:30:22.843Z,64.40
2023-02-19T18:32:51.429Z,66.51
2023-02-19T18:35:21.688Z,66.19
2023-02-19T18:38:08.910Z,66.26
2023-02-19T18:40:36.761Z,66.50
2023-02-19T18:43:06.522Z,66.10
2023-02-19T18:46:12.973Z,68.19
2023-02-19T18:48:41.043Z,65.97
2023-02-19T18:51:12.383Z,65.52
2023-02-19T18:53:42.741Z,66.23
2023-02-19T18:56:10.546Z,67.42
2023-02-19T18:58:39.704Z,66.90
2023-02-19T19:01:07.646Z,66.51
2023-02-19T19:03:36.269Z,67.29
2023-02-19T19:06:04.090Z,67.58
2023-02-19T19:08:31.800Z,66.79
2023-02-19T19:10:59.567Z,68.25
2023-02-19T19:13:27.330Z,67.52
2023-02-19T19:15:56.439Z,68.58
2023-02-19T19:18:25.002Z,69.61
2023-02-19T19:20:56.220Z,70.41
2023-02-19T19:23:23.975Z,70.48
2023-02-19T19:25:51.736Z,72.01
2023-02-19T19:28:19.459Z,70.99
2023-02-19T19:30:47.376Z,71.53
2023-02-19T19:33:17.686Z,71.59
2023-02-19T19:35:45.401Z,71.79
2023-02-19T19:38:13.224Z,73.12
2023-02-19T19:40:42.225Z,70.78
2023-02-19T19:43:10.026Z,71.24
2023-02-19T19:45:37.856Z,71.65
2023-02-19T19:48:05.971Z,71.11
2023-02-19T19:50:35.144Z,71.26
2023-02-19T19:53:02.953Z,72.24
2023-02-19T19:55:30.727Z,71.40
2023-02-19T19:58:00.373Z,72.46
2023-02-19T20:00:28.467Z,73.01
2023-02-19T20:02:56.318Z,71.19
2023-02-19T20:05:24.241Z,72.22
2023-02-19T20:07:54.550Z,71.85
2023-02-19T20:10:22.721Z,73.56
2023-02-19T20:12:50.618Z,73.65
2023-02-19T20:15:22.619Z,73.85
2023-02-19T20:17:51.510Z,73.43
2023-02-19T20:20:22.585Z,72.35
2023-02-19T20:22:51.732Z,73.99
2023-02-19T20:25:23.326Z,73.36
2023-02-19T20:27:51.954Z,72.86
2023-02-19T20:30:22.323Z,73.12
2023-02-19T20:32:50.593Z,74.38
2023-02-19T20:35:19.270Z,73.61
2023-02-19T20:37:48.015Z,73.70
2023-02-19T20:40:20.483Z,73.49
2023-02-19T20:42:48.308Z,74.76
2023-02-19T20:45:17.024Z,74.37
2023-02-19T20:47:44.848Z,74.40
2023-02-19T20:50:13.337Z,73.84
2023-02-19T20:53:05.909Z,75.07
2023-02-19T20:55:44.260Z,74.37
2023-02-19T20:59:01.493Z,74.86
2023-02-19T21:02:03.972Z,74.48
2023-02-19T21:04:31.747Z,74.06
2023-02-19T21:07:00.548Z,74.12
2023-02-19T21:09:28.426Z,73.62
2023-02-19T21:11:58.517Z,74.36
2023-02-19T21:14:27.134Z,74.78
2023-02-19T21:17:02.877Z,75.03
2023-02-19T21:19:30.692Z,74.98
2023-02-19T21:21:58.666Z,76.64
2023-02-19T21:24:26.465Z,77.76
2023-02-19T21:26:54.304Z,77.39
2023-02-19T21:29:23.910Z,77.03
2023-02-19T21:31:55.427Z,77.17
2023-02-19T21:34:26.484Z,77.08
2023-02-19T21:36:55.243Z,77.77
2023-02-19T21:39:25.985Z,78.02
2023-02-19T21:41:53.852Z,77.65
2023-02-19T21:44:23.259Z,77.88
2023-02-19T21:46:51.351Z,77.71
2023-02-19T21:49:19.171Z,79.26
2023-02-19T21:51:47.988Z,79.09
2023-02-19T21:54:20.739Z,79.97
2023-02-19T21:56:49.544Z,79.75
2023-02-19T21:59:17.335Z,79.99
2023-02-19T22:01:46.628Z,80.33
2023-02-19T22:04:17.348Z,80.08
2023-02-19T22:07:30.450Z,80.16
2023-02-19T22:09:58.192Z,80.26
2023-02-19T22:12:25.948Z,80.42
2023-02-19T22:14:53.722Z,79.84
2023-02-19T22:18:23.964Z,80.35
2023-02-19T22:20:53.242Z,80.48
2023-02-19T22:23:21.136Z,80.28
2023-02-19T22:25:49.188Z,79.36
2023-02-19T22:28:16.930Z,78.63
2023-02-19T22:30:44.875Z,78.83
2023-02-19T22:33:12.652Z,78.48
2023-02-19T22:35:43.198Z,78.91
2023-02-19T22:38:12.135Z,78.53
2023-02-19T22:40:39.844Z,77.83
2023-02-19T22:43:07.615Z,77.88
2023-02-19T22:45:35.437Z,77.73
2023-02-19T22:48:03.236Z,78.22
2023-02-19T22:50:31.378Z,77.67
2023-02-19T22:52:59.175Z,77.66
2023-02-19T22:55:28.279Z,77.11
2023-02-19T22:57:56.441Z,77.11
2023-02-19T23:00:24.416Z,77.30
2023-02-19T23:02:52.148Z,77.10
2023-02-19T23:05:20.081Z,77.74
2023-02-19T23:07:47.827Z,77.28
2023-02-19T23:10:15.894Z,76.71
2023-02-19T23:12:45.043Z,76.43
2023-02-19T23:15:14.646Z,76.75
2023-02-19T23:17:42.468Z,76.52
2023-02-19T23:20:11.268Z,77.21
2023-02-19T23:22:39.863Z,77.67
2023-02-19T23:25:07.914Z,76.29
2023-02-19T23:27:35.705Z,76.68
2023-02-19T23:30:05.141Z,77.08
2023-02-19T23:32:32.981Z,77.43
2023-02-19T23:35:00.813Z,77.34
2023-02-19T23:37:28.636Z,77.37
2023-02-19T23:39:56.536Z,76.95
2023-02-19T23:42:24.317Z,77.12
2023-02-19T23:44:52.100Z,76.72
2023-02-19T23:47:22.457Z,76.98
2023-02-19T23:49:50.212Z,76.81
2023-02-19T23:52:17.986Z,77.09
2023-02-19T23:54:45.775Z,78.13
2023-02-19T23:57:15.052Z,77.33
2023-02-19T23:59:42.869Z,77.13
